Impacts METAR Board
IDs:

KDEN - Denver Intl, CO, US

Updated at: 2200 UTC 01 Feb 2023
Potential Impact None Slight Moderate High
Time 01/10Z 01/11Z 01/12Z 01/13Z 01/14Z 01/15Z 01/16Z 01/17Z 01/18Z 01/19Z 01/20Z 01/21Z 01/22Z
Temp12 12 18 20 20 21 23 28 31 41 34 33 32
Dewpt-1 -2 -1 1 2 3 6 9 14 12 18 20 19
Altim30.04 30.03 30.04 30.06 30.06 30.08 30.10 30.10 30.10 30.08 30.05 30.04 30.05
VIS10 10 10 10 10 10 10 10 10 10 10 10 10
CIG-- -- -- -- -- -- -- -- -- -- -- -- --
CoverCLRFEWFEWCLRFEWFEWFEWFEWFEWFEWFEWFEWFEW
FltCatVFRVFRVFRVFRVFRVFRVFRVFRVFRVFRVFRVFRVFR
WX--------------------------
WDir250240210210220230220210210090120140
WSpd8 8 10 13 11 9 10 11 8 3 4 8 9
WGst-- -- -- -- -- -- -- -- -- -- -- -- --
Raw hourly METARs
KDEN 010953Z 25008KT 10SM CLR M11/M18 A3004 RMK AO2 SLP225 T11111183
KDEN 011053Z 24008KT 10SM FEW120 M11/M19 A3003 RMK AO2 SLP230 T11111189
KDEN 011153Z 21010KT 10SM FEW120 M08/M18 A3004 RMK AO2 SLP229 T10781183 11072 21139 55001
KDEN 011253Z 21013KT 10SM CLR M07/M17 A3006 RMK AO2 SLP237 T10671172
KDEN 011353Z 22011KT 10SM FEW080 FEW120 M07/M17 A3006 RMK AO2 SLP234 T10671167
KDEN 011453Z 23009KT 10SM FEW080 FEW120 M06/M16 A3008 RMK AO2 SLP241 T10611161 53013
KDEN 011553Z 22010KT 10SM FEW080 FEW120 M05/M14 A3010 RMK AO2 SLP249 T10501144
KDEN 011653Z 21011KT 10SM FEW090 FEW120 M02/M13 A3010 RMK AO2 SLP242 T10221128
KDEN 011753Z 21008KT 10SM FEW090 FEW120 M01/M10 A3010 RMK AO2 SLP239 T10061100 10006 21089 51005
KDEN 011853Z VRB03KT 10SM FEW090 FEW130 05/M11 A3008 RMK AO2 SLP215 T00501111
KDEN 011953Z 09004KT 10SM FEW090 FEW120 01/M08 A3005 RMK AO2 SLP216 T00111078
KDEN 012053Z 12008KT 10SM FEW090 FEW120 01/M07 A3004 RMK AO2 SLP212 T00061067 56018
KDEN 012153Z 14009KT 10SM FEW100 FEW150 00/M07 A3005 RMK AO2 SLP214 T00001072



Page loaded:  22:01 UTC  |   02:01 PM Pacific  |   03:01 PM Mountain  |   04:01 PM Central  |   05:01 PM Eastern

 

ADVISORIES

FORECASTS

FORECASTS

OBSERVATIONS

USER TOOLS

ABOUT US